Terminal Aerodrome Forecast
Issued by NWS

Home | Current Version | Previous Version | Text Only | Print | Product List | Glossary On
Versions: 1 2 3 4 5 6 7 8 9 10 11 12 13 14 15
000
FTUS43 KGRB 301720
TAFATW
TAF
KATW 301720Z 3018/0118 36011G15KT P6SM BKN035
     FM010100 02006KT P6SM SCT050
     FM011400 35009G14KT P6SM SCT040=

USA.gov is the U.S. government's official web portal to all federal, state and local government web resources and services.